createdAt,value
2023-05-10T00:01:49.946Z,100812.56
2023-05-10T00:04:18.197Z,100808.31
2023-05-10T00:06:46.861Z,100801.09
2023-05-10T00:09:16.452Z,100804.91
2023-05-10T00:11:44.753Z,100804.16
2023-05-10T00:14:13.536Z,100803.84
2023-05-10T00:16:41.853Z,100788.88
2023-05-10T00:19:10.439Z,100805.00
2023-05-10T00:21:38.646Z,100803.59
2023-05-10T00:24:07.331Z,100803.56
2023-05-10T00:26:36.870Z,100805.09
2023-05-10T00:29:05.137Z,100795.59
2023-05-10T00:31:33.350Z,100795.50
2023-05-10T00:34:01.615Z,100792.44
2023-05-10T00:36:29.907Z,100791.00
2023-05-10T00:38:58.031Z,100794.59
2023-05-10T00:41:26.228Z,100785.38
2023-05-10T00:43:55.914Z,100784.91
2023-05-10T00:46:25.609Z,100778.41
2023-05-10T00:48:54.598Z,100784.25
2023-05-10T00:51:22.987Z,100776.44
2023-05-10T00:53:52.023Z,100779.91
2023-05-10T00:56:23.949Z,100770.91
2023-05-10T00:58:52.484Z,100766.38
2023-05-10T01:01:22.153Z,100759.31
2023-05-10T01:03:50.696Z,100763.31
2023-05-10T01:06:18.852Z,100764.44
2023-05-10T01:08:47.507Z,100758.97
2023-05-10T01:11:16.177Z,100757.25
2023-05-10T01:13:48.078Z,100755.72
2023-05-10T01:16:17.252Z,100746.69
2023-05-10T01:18:47.334Z,100741.88
2023-05-10T01:21:24.279Z,100750.41
2023-05-10T01:24:14.646Z,100739.84
2023-05-10T01:27:22.288Z,100751.94
2023-05-10T01:30:23.930Z,100743.78
2023-05-10T01:32:59.836Z,100732.31
2023-05-10T01:35:35.359Z,100735.66
2023-05-10T01:38:14.474Z,100739.44
2023-05-10T01:40:49.691Z,100730.78
2023-05-10T01:43:24.619Z,100726.72
2023-05-10T01:46:11.353Z,100722.75
2023-05-10T01:48:47.258Z,100731.69
2023-05-10T01:51:18.643Z,100721.56
2023-05-10T01:53:49.890Z,100712.31
2023-05-10T01:56:22.282Z,100718.56
2023-05-10T01:58:52.522Z,100713.06
2023-05-10T02:01:23.422Z,100718.78
2023-05-10T02:03:55.773Z,100722.03
2023-05-10T02:06:25.718Z,100717.38
2023-05-10T02:08:55.774Z,100709.00
2023-05-10T02:11:25.864Z,100713.69
2023-05-10T02:13:55.953Z,100709.31
2023-05-10T02:16:31.857Z,100708.75
2023-05-10T02:19:03.931Z,100710.94
2023-05-10T02:21:33.749Z,100706.06
2023-05-10T02:24:04.664Z,100709.63
2023-05-10T02:26:35.951Z,100704.81
2023-05-10T02:29:05.540Z,100704.50
2023-05-10T02:31:35.140Z,100700.84
2023-05-10T02:34:06.052Z,100697.66
2023-05-10T02:36:34.873Z,100691.53
2023-05-10T02:39:04.296Z,100700.41
2023-05-10T02:41:34.810Z,100701.44
2023-05-10T02:44:04.767Z,100694.97
2023-05-10T02:46:33.217Z,100690.84
2023-05-10T02:49:01.988Z,100692.72
2023-05-10T02:51:34.684Z,100696.75
2023-05-10T02:54:18.248Z,100696.91
2023-05-10T02:56:52.558Z,100694.84
2023-05-10T02:59:20.795Z,100697.69
2023-05-10T03:01:49.162Z,100701.13
2023-05-10T03:04:17.529Z,100696.16
2023-05-10T03:06:47.120Z,100694.78
2023-05-10T03:09:17.075Z,100698.81
2023-05-10T03:11:57.435Z,100696.84
2023-05-10T03:14:40.359Z,100689.84
2023-05-10T03:17:16.881Z,100688.53
2023-05-10T03:19:50.802Z,100692.41
2023-05-10T03:22:27.088Z,100687.78
2023-05-10T03:24:58.395Z,100685.75
2023-05-10T03:27:30.009Z,100690.28
2023-05-10T03:29:59.091Z,100684.38
2023-05-10T03:32:28.138Z,100677.38
2023-05-10T03:34:56.509Z,100687.88
2023-05-10T03:37:27.794Z,100673.81
2023-05-10T03:39:55.982Z,100681.63
2023-05-10T03:42:24.274Z,100684.53
2023-05-10T03:44:52.418Z,100676.72
2023-05-10T03:47:20.813Z,100677.19
2023-05-10T03:49:48.986Z,100673.81
2023-05-10T03:52:17.412Z,100669.16
2023-05-10T03:54:46.942Z,100672.72
2023-05-10T03:57:15.138Z,100682.78
2023-05-10T03:59:43.289Z,100682.25
2023-05-10T04:02:11.507Z,100681.56
2023-05-10T04:04:39.762Z,100682.41
2023-05-10T04:07:07.970Z,100675.59
2023-05-10T04:09:36.731Z,100671.53
2023-05-10T04:12:08.015Z,100663.19
2023-05-10T04:14:38.220Z,100669.19
2023-05-10T04:17:06.679Z,100665.31
2023-05-10T04:19:35.469Z,100673.88
2023-05-10T04:22:04.546Z,100665.25
2023-05-10T04:24:32.749Z,100668.09
2023-05-10T04:27:01.416Z,100673.28
2023-05-10T04:29:30.893Z,100673.13
2023-05-10T04:31:59.087Z,100666.50
2023-05-10T04:34:27.414Z,100664.03
2023-05-10T04:36:55.611Z,100668.13
2023-05-10T04:39:23.747Z,100676.19
2023-05-10T04:41:52.106Z,100673.31
2023-05-10T04:44:20.585Z,100668.72
2023-05-10T04:46:50.129Z,100664.94
2023-05-10T04:49:18.925Z,100670.47
2023-05-10T04:51:47.103Z,100660.53
2023-05-10T04:54:15.371Z,100668.00
2023-05-10T04:56:43.619Z,100671.72
2023-05-10T04:59:11.785Z,100667.19
2023-05-10T05:01:40.054Z,100668.22
2023-05-10T05:04:09.894Z,100669.94
2023-05-10T05:06:38.123Z,100667.94
2023-05-10T05:09:06.428Z,100666.13
2023-05-10T05:11:34.828Z,100670.47
2023-05-10T05:14:03.094Z,100670.72
2023-05-10T05:16:32.987Z,100666.84
2023-05-10T05:19:01.966Z,100677.28
2023-05-10T05:21:33.125Z,100668.47
2023-05-10T05:24:01.738Z,100679.81
2023-05-10T05:26:29.936Z,100668.00
2023-05-10T05:28:58.101Z,100668.59
2023-05-10T05:31:26.297Z,100668.56
2023-05-10T05:33:54.870Z,100666.31
2023-05-10T05:36:23.620Z,100670.22
2023-05-10T05:38:53.099Z,100663.66
2023-05-10T05:41:22.493Z,100669.06
2023-05-10T05:43:50.743Z,100658.31
2023-05-10T05:46:19.094Z,100660.75
2023-05-10T05:48:47.398Z,100663.56
2023-05-10T05:51:15.540Z,100660.31
2023-05-10T05:53:43.685Z,100660.19
2023-05-10T05:56:13.348Z,100670.84
2023-05-10T05:58:41.770Z,100669.16
2023-05-10T06:01:09.986Z,100666.28
2023-05-10T06:03:38.234Z,100667.91
2023-05-10T06:06:06.718Z,100669.63
2023-05-10T06:08:34.962Z,100668.16
2023-05-10T06:11:05.025Z,100668.50
2023-05-10T06:13:36.427Z,100667.94
2023-05-10T06:16:04.904Z,100672.50
2023-05-10T06:18:33.430Z,100664.78
2023-05-10T06:21:01.767Z,100672.69
2023-05-10T06:23:29.905Z,100676.41
2023-05-10T06:25:58.110Z,100680.34
2023-05-10T06:28:26.386Z,100659.69
2023-05-10T06:30:55.836Z,100658.22
2023-05-10T06:33:24.310Z,100650.81
2023-05-10T06:35:52.505Z,100664.16
2023-05-10T06:38:20.682Z,100664.81
2023-05-10T06:40:48.880Z,100654.09
2023-05-10T06:43:17.189Z,100669.72
2023-05-10T06:45:45.745Z,100656.56
2023-05-10T06:48:15.348Z,100652.44
2023-05-10T06:50:43.602Z,100657.22
2023-05-10T06:53:12.705Z,100655.59
2023-05-10T06:55:41.162Z,100656.31
2023-05-10T06:58:09.356Z,100656.00
2023-05-10T07:00:40.230Z,100654.81
2023-05-10T07:03:08.573Z,100654.81
2023-05-10T07:05:38.151Z,100645.44
2023-05-10T07:08:06.411Z,100651.56
2023-05-10T07:10:35.098Z,100659.44
2023-05-10T07:13:03.360Z,100654.41
2023-05-10T07:15:31.856Z,100643.34
2023-05-10T07:18:00.304Z,100650.97
2023-05-10T07:20:28.971Z,100652.81
2023-05-10T07:22:58.566Z,100644.38
2023-05-10T07:25:27.156Z,100645.25
2023-05-10T07:27:55.369Z,100646.75
2023-05-10T07:30:23.684Z,100631.97
2023-05-10T07:32:51.943Z,100635.75
2023-05-10T07:35:20.139Z,100632.94
2023-05-10T07:37:48.310Z,100628.84
2023-05-10T07:40:17.900Z,100632.06
2023-05-10T07:42:46.555Z,100628.56
2023-05-10T07:45:14.810Z,100633.22
2023-05-10T07:47:43.227Z,100629.69
2023-05-10T07:50:11.760Z,100626.28
2023-05-10T07:52:40.328Z,100627.16
2023-05-10T07:55:09.562Z,100615.56
2023-05-10T07:57:39.817Z,100618.25
2023-05-10T08:00:09.572Z,100620.63
2023-05-10T08:02:43.792Z,100615.81
2023-05-10T08:05:12.128Z,100613.72
2023-05-10T08:07:40.317Z,100612.03
2023-05-10T08:10:10.376Z,100621.47
2023-05-10T08:12:40.133Z,100616.97
2023-05-10T08:15:10.041Z,100609.59
2023-05-10T08:17:38.367Z,100620.34
2023-05-10T08:20:08.341Z,100611.97
2023-05-10T08:22:36.763Z,100627.06
2023-05-10T08:25:05.382Z,100615.81
2023-05-10T08:27:33.555Z,100615.38
2023-05-10T08:30:03.115Z,100618.13
2023-05-10T08:32:31.807Z,100612.13
2023-05-10T08:35:00.014Z,100612.16
2023-05-10T08:37:31.443Z,100605.56
2023-05-10T08:39:59.640Z,100615.72
2023-05-10T08:42:32.150Z,100616.13
2023-05-10T08:45:01.535Z,100623.13
2023-05-10T08:47:31.446Z,100614.09
2023-05-10T08:50:01.512Z,100617.13
2023-05-10T08:52:31.922Z,100606.78
2023-05-10T08:55:00.435Z,100608.13
2023-05-10T08:57:28.772Z,100609.97
2023-05-10T08:59:57.046Z,100608.19
2023-05-10T09:02:26.072Z,100608.66
2023-05-10T09:04:55.665Z,100610.09
2023-05-10T09:07:23.987Z,100601.34
2023-05-10T09:09:52.788Z,100608.06
2023-05-10T09:12:20.975Z,100606.25
2023-05-10T09:14:49.884Z,100605.19
2023-05-10T09:17:18.380Z,100593.75
2023-05-10T09:19:47.353Z,100594.59
2023-05-10T09:22:16.848Z,100593.28
2023-05-10T09:24:46.331Z,100603.66
2023-05-10T09:27:14.534Z,100608.09
2023-05-10T09:29:45.110Z,100603.06
2023-05-10T09:32:13.840Z,100606.97
2023-05-10T09:34:43.256Z,100602.22
2023-05-10T09:37:11.630Z,100598.19
2023-05-10T09:39:42.304Z,100607.44
2023-05-10T09:42:11.897Z,100589.06
2023-05-10T09:44:41.852Z,100604.25
2023-05-10T09:47:10.281Z,100593.50
2023-05-10T09:49:38.533Z,100603.16
2023-05-10T09:52:08.497Z,100595.66
2023-05-10T09:54:37.069Z,100595.75
2023-05-10T09:57:06.940Z,100586.44
2023-05-10T09:59:36.211Z,100589.75
2023-05-10T10:02:04.834Z,100581.94
2023-05-10T10:04:33.800Z,100583.31
2023-05-10T10:07:04.792Z,100583.25
2023-05-10T10:09:33.689Z,100578.28
2023-05-10T10:12:03.009Z,100590.09
2023-05-10T10:14:32.696Z,100573.13
2023-05-10T10:19:35.323Z,100577.00
2023-05-10T10:22:03.856Z,100571.34
2023-05-10T10:24:32.192Z,100566.22
2023-05-10T10:27:09.823Z,100560.19
2023-05-10T10:29:49.485Z,100560.75
2023-05-10T10:32:26.575Z,100555.91
2023-05-10T10:34:57.120Z,100552.63
2023-05-10T10:37:42.921Z,100561.59
2023-05-10T10:40:32.664Z,100560.38
2023-05-10T10:43:24.100Z,100557.06
2023-05-10T10:46:15.585Z,100548.69
2023-05-10T10:48:48.991Z,100544.44
2023-05-10T10:51:17.277Z,100545.31
2023-05-10T10:53:45.731Z,100553.78
2023-05-10T10:56:16.284Z,100542.13
2023-05-10T10:58:52.750Z,100548.56
2023-05-10T11:01:22.434Z,100543.47
2023-05-10T11:04:20.770Z,100547.19
2023-05-10T11:06:49.050Z,100554.59
2023-05-10T11:09:17.268Z,100551.22
2023-05-10T11:11:55.863Z,100559.16
2023-05-10T11:14:24.609Z,100545.81
2023-05-10T11:16:54.337Z,100545.50
2023-05-10T11:21:52.033Z,100537.72
2023-05-10T11:24:22.882Z,100539.22
2023-05-10T11:26:53.116Z,100546.78
2023-05-10T11:29:21.894Z,100539.06
2023-05-10T11:31:51.642Z,100550.38
2023-05-10T11:34:34.357Z,100541.97
2023-05-10T11:37:02.881Z,100546.16
2023-05-10T11:39:32.016Z,100535.72
2023-05-10T11:42:01.097Z,100538.69
2023-05-10T11:44:31.474Z,100535.03
2023-05-10T11:47:00.744Z,100543.41
2023-05-10T11:49:30.406Z,100545.53
2023-05-10T11:52:06.063Z,100538.47
2023-05-10T11:54:35.815Z,100543.09
2023-05-10T11:57:04.338Z,100541.75
2023-05-10T11:59:32.777Z,100539.34
2023-05-10T12:02:01.265Z,100534.53
2023-05-10T12:04:31.255Z,100540.41
2023-05-10T12:06:59.922Z,100543.06
2023-05-10T12:09:42.639Z,100541.50
2023-05-10T12:12:12.296Z,100551.97
2023-05-10T12:14:40.479Z,100539.97
2023-05-10T12:17:13.608Z,100546.78
2023-05-10T12:19:44.639Z,100554.22
2023-05-10T12:22:12.892Z,100542.44
2023-05-10T12:24:41.162Z,100544.78
2023-05-10T12:27:10.574Z,100553.25
2023-05-10T12:29:41.586Z,100541.28
2023-05-10T12:32:11.105Z,100542.91
2023-05-10T12:34:39.529Z,100541.13
2023-05-10T12:37:09.159Z,100549.44
2023-05-10T12:39:44.878Z,100539.06
2023-05-10T12:42:13.678Z,100540.25
2023-05-10T12:44:41.898Z,100543.06
2023-05-10T12:47:10.324Z,100546.41
2023-05-10T12:49:38.518Z,100542.28
2023-05-10T12:52:06.711Z,100549.84
2023-05-10T12:54:36.262Z,100543.13
2023-05-10T12:57:04.501Z,100556.47
2023-05-10T12:59:32.825Z,100555.53
2023-05-10T13:02:01.199Z,100540.66
2023-05-10T13:04:29.491Z,100543.59
2023-05-10T13:06:59.736Z,100540.72
2023-05-10T13:09:29.502Z,100546.31
2023-05-10T13:11:59.141Z,100539.16
2023-05-10T13:14:27.784Z,100538.34
2023-05-10T13:16:56.182Z,100549.28
2023-05-10T13:19:24.439Z,100533.25
2023-05-10T13:21:52.645Z,100528.06
2023-05-10T13:24:20.947Z,100531.38
2023-05-10T13:26:49.664Z,100535.44
2023-05-10T13:29:20.129Z,100538.59
2023-05-10T13:31:48.428Z,100540.34
2023-05-10T13:34:16.785Z,100531.94
2023-05-10T13:36:44.997Z,100524.88
2023-05-10T13:39:13.254Z,100531.47
2023-05-10T13:41:41.525Z,100543.97
2023-05-10T13:44:10.124Z,100519.47
2023-05-10T13:46:39.833Z,100520.16
2023-05-10T13:49:08.339Z,100513.97
2023-05-10T13:51:37.087Z,100510.09
2023-05-10T13:54:05.826Z,100508.84
2023-05-10T13:56:34.412Z,100509.00
2023-05-10T13:59:03.026Z,100507.78
2023-05-10T14:01:31.231Z,100514.59
2023-05-10T14:04:01.018Z,100514.97
2023-05-10T14:06:29.398Z,100511.94
2023-05-10T14:08:57.903Z,100522.03
2023-05-10T14:11:26.055Z,100521.94
2023-05-10T14:13:54.260Z,100507.72
2023-05-10T14:16:22.721Z,100513.19
2023-05-10T14:18:50.991Z,100515.88
2023-05-10T14:21:20.570Z,100520.22
2023-05-10T14:23:48.745Z,100531.25
2023-05-10T14:26:17.144Z,100514.94
2023-05-10T14:28:45.967Z,100502.56
2023-05-10T14:31:15.338Z,100511.13
2023-05-10T14:33:43.866Z,100523.47
2023-05-10T14:36:12.480Z,100520.16
2023-05-10T14:38:42.132Z,100520.50
2023-05-10T14:41:11.827Z,100515.72
2023-05-10T14:43:40.192Z,100511.69
2023-05-10T14:46:08.512Z,100497.56
2023-05-10T14:48:36.884Z,100499.97
2023-05-10T14:51:05.512Z,100497.63
2023-05-10T14:53:33.727Z,100494.13
2023-05-10T14:56:03.951Z,100486.50
2023-05-10T14:58:34.153Z,100473.13
2023-05-10T15:01:02.718Z,100472.66
2023-05-10T15:03:31.533Z,100455.38
2023-05-10T15:06:00.234Z,100470.72
2023-05-10T15:08:28.804Z,100461.41
2023-05-10T15:10:57.257Z,100448.78
2023-05-10T15:13:26.922Z,100467.38
2023-05-10T15:15:55.292Z,100464.66
2023-05-10T15:18:26.592Z,100456.81
2023-05-10T15:20:54.802Z,100455.91
2023-05-10T15:23:23.020Z,100478.31
2023-05-10T15:25:51.264Z,100478.16
2023-05-10T15:28:19.472Z,100450.00
2023-05-10T15:30:49.242Z,100460.25
2023-05-10T15:33:17.457Z,100456.38
2023-05-10T15:35:45.756Z,100458.41
2023-05-10T15:38:13.894Z,100461.78
2023-05-10T15:40:42.150Z,100456.16
2023-05-10T15:43:10.345Z,100462.78
2023-05-10T15:45:38.518Z,100460.97
2023-05-10T15:48:08.387Z,100461.59
2023-05-10T15:50:36.611Z,100483.75
2023-05-10T15:53:04.867Z,100484.28
2023-05-10T15:55:33.094Z,100487.97
2023-05-10T15:58:01.241Z,100474.31
2023-05-10T16:00:30.375Z,100471.75
2023-05-10T16:02:58.645Z,100484.47
2023-05-10T16:05:31.956Z,100483.13
2023-05-10T16:08:00.263Z,100503.97
2023-05-10T16:10:28.689Z,100501.97
2023-05-10T16:12:57.306Z,100514.38
2023-05-10T16:15:25.483Z,100520.19
2023-05-10T16:17:53.794Z,100502.78
2023-05-10T16:20:22.120Z,100496.09
2023-05-10T16:22:52.092Z,100506.88
2023-05-10T16:25:20.391Z,100513.56
2023-05-10T16:27:48.877Z,100527.03
2023-05-10T16:30:17.166Z,100516.31
2023-05-10T16:32:45.449Z,100518.72
2023-05-10T16:35:13.618Z,100517.19
2023-05-10T16:37:41.787Z,100510.16
2023-05-10T16:40:12.106Z,100530.28
2023-05-10T16:42:40.297Z,100531.81
2023-05-10T16:45:09.778Z,100538.41
2023-05-10T16:47:39.452Z,100540.41
2023-05-10T16:50:09.495Z,100546.84
2023-05-10T16:52:38.805Z,100547.31
2023-05-10T16:55:07.704Z,100552.59
2023-05-10T16:57:37.345Z,100549.06
2023-05-10T17:00:06.609Z,100554.88
2023-05-10T17:02:35.109Z,100558.09
2023-05-10T17:05:03.427Z,100561.47
2023-05-10T17:07:31.754Z,100552.78
2023-05-10T17:10:00.134Z,100568.25
2023-05-10T17:12:28.462Z,100561.81
2023-05-10T17:14:58.694Z,100571.88
2023-05-10T17:17:26.914Z,100578.63
2023-05-10T17:19:55.143Z,100574.06
2023-05-10T17:22:23.338Z,100578.56
2023-05-10T17:24:51.628Z,100583.81
2023-05-10T17:27:19.834Z,100583.53
2023-05-10T17:29:48.008Z,100575.41
2023-05-10T17:32:17.465Z,100587.56
2023-05-10T17:34:45.756Z,100593.59
2023-05-10T17:37:14.070Z,100587.22
2023-05-10T17:39:42.236Z,100590.78
2023-05-10T17:42:10.413Z,100607.03
2023-05-10T17:44:38.591Z,100598.03
2023-05-10T17:47:07.272Z,100603.97
2023-05-10T17:49:36.816Z,100604.25
2023-05-10T17:52:05.063Z,100600.97
2023-05-10T17:54:33.251Z,100605.34
2023-05-10T17:57:02.065Z,100612.88
2023-05-10T17:59:30.314Z,100612.56
2023-05-10T18:01:58.466Z,100616.19
2023-05-10T18:04:27.331Z,100620.72
2023-05-10T18:07:01.369Z,100620.81
2023-05-10T18:09:30.245Z,100625.88
2023-05-10T18:11:58.547Z,100627.63
2023-05-10T18:14:39.758Z,100630.78
2023-05-10T18:17:09.937Z,100633.75
2023-05-10T18:19:38.293Z,100631.88
2023-05-10T18:22:10.702Z,100632.88
2023-05-10T18:24:40.324Z,100637.72
2023-05-10T18:27:09.177Z,100640.94
2023-05-10T18:29:37.775Z,100642.38
2023-05-10T18:32:06.531Z,100643.22
2023-05-10T18:34:34.775Z,100651.47
2023-05-10T18:37:07.429Z,100648.44
2023-05-10T18:39:37.577Z,100667.69
2023-05-10T18:42:06.560Z,100664.59
2023-05-10T18:44:34.787Z,100668.66
2023-05-10T18:47:03.052Z,100673.06
2023-05-10T18:49:31.358Z,100679.03
2023-05-10T18:51:59.565Z,100677.22
2023-05-10T18:54:27.829Z,100679.03
2023-05-10T18:56:58.630Z,100682.91
2023-05-10T18:59:27.789Z,100686.16
2023-05-10T19:01:57.540Z,100689.84
2023-05-10T19:04:26.192Z,100681.91
2023-05-10T19:06:55.804Z,100702.09
2023-05-10T19:09:24.292Z,100700.72
2023-05-10T19:11:52.610Z,100700.88
2023-05-10T19:14:22.129Z,100715.25
2023-05-10T19:16:53.425Z,100716.94
2023-05-10T19:19:24.275Z,100727.56
2023-05-10T19:21:54.735Z,100725.44
2023-05-10T19:24:23.802Z,100722.91
2023-05-10T19:26:52.080Z,100725.88
2023-05-10T19:29:21.739Z,100729.41
2023-05-10T19:31:52.130Z,100737.03
2023-05-10T19:34:20.818Z,100739.28
2023-05-10T19:36:49.059Z,100742.63
2023-05-10T19:39:17.580Z,100745.16
2023-05-10T19:41:45.841Z,100750.47
2023-05-10T19:44:13.966Z,100745.47
2023-05-10T19:46:43.564Z,100753.00
2023-05-10T19:49:11.776Z,100743.63
2023-05-10T19:51:40.270Z,100757.03
2023-05-10T19:54:08.459Z,100757.22
2023-05-10T19:56:36.600Z,100759.72
2023-05-10T19:59:04.854Z,100749.47
2023-05-10T20:01:33.159Z,100760.84
2023-05-10T20:04:02.744Z,100756.81
2023-05-10T20:06:31.696Z,100757.66
2023-05-10T20:09:00.041Z,100756.09
2023-05-10T20:11:28.337Z,100762.06
2023-05-10T20:13:56.949Z,100758.44
2023-05-10T20:16:26.770Z,100763.81
2023-05-10T20:18:55.468Z,100770.22
2023-05-10T20:21:26.415Z,100762.97
2023-05-10T20:23:54.566Z,100767.00
2023-05-10T20:26:22.714Z,100767.13
2023-05-10T20:28:51.167Z,100762.50
2023-05-10T20:31:19.509Z,100761.91
2023-05-10T20:33:47.665Z,100765.16
2023-05-10T20:36:16.028Z,100769.81
2023-05-10T20:38:45.532Z,100759.47
2023-05-10T20:41:13.794Z,100766.19
2023-05-10T20:43:41.946Z,100767.78
2023-05-10T20:46:10.295Z,100764.72
2023-05-10T20:48:38.693Z,100772.25
2023-05-10T20:51:06.992Z,100773.59
2023-05-10T20:53:35.294Z,100778.47
2023-05-10T20:56:05.006Z,100765.34
2023-05-10T20:58:33.310Z,100776.16
2023-05-10T21:01:02.112Z,100763.66
2023-05-10T21:03:30.518Z,100768.00
2023-05-10T21:05:58.694Z,100772.63
2023-05-10T21:08:26.844Z,100769.84
2023-05-10T21:10:55.160Z,100771.25
2023-05-10T21:13:25.293Z,100776.09
2023-05-10T21:15:53.562Z,100776.81
2023-05-10T21:18:21.982Z,100788.19
2023-05-10T21:20:50.665Z,100784.53
2023-05-10T21:23:18.924Z,100781.06
2023-05-10T21:25:47.153Z,100778.84
2023-05-10T21:28:15.454Z,100780.16
2023-05-10T21:30:44.958Z,100785.00
2023-05-10T21:33:13.154Z,100780.50
2023-05-10T21:35:42.922Z,100782.31
2023-05-10T21:38:11.848Z,100781.34
2023-05-10T21:40:40.373Z,100780.34
2023-05-10T21:43:09.859Z,100781.72
2023-05-10T21:45:38.166Z,100789.13
2023-05-10T21:48:07.901Z,100787.53
2023-05-10T21:50:36.226Z,100783.09
2023-05-10T21:53:04.673Z,100786.88
2023-05-10T21:55:34.227Z,100789.06
2023-05-10T21:58:02.433Z,100788.66
2023-05-10T22:00:32.216Z,100791.09
2023-05-10T22:03:01.869Z,100788.25
2023-05-10T22:05:31.582Z,100791.78
2023-05-10T22:07:59.731Z,100793.41
2023-05-10T22:10:27.874Z,100796.31
2023-05-10T22:12:56.192Z,100794.06
2023-05-10T22:15:24.378Z,100789.06
2023-05-10T22:17:52.710Z,100790.00
2023-05-10T22:20:21.329Z,100802.41
2023-05-10T22:22:50.842Z,100802.75
2023-05-10T22:25:19.143Z,100789.66
2023-05-10T22:27:47.370Z,100800.06
2023-05-10T22:30:16.322Z,100794.97
2023-05-10T22:32:44.779Z,100806.16
2023-05-10T22:35:13.001Z,100806.00
2023-05-10T22:37:41.547Z,100801.19
2023-05-10T22:40:12.584Z,100805.09
2023-05-10T22:42:40.819Z,100811.50
2023-05-10T22:45:10.402Z,100801.22
2023-05-10T22:47:39.703Z,100799.22
2023-05-10T22:50:09.779Z,100804.84
2023-05-10T22:52:39.324Z,100809.00
2023-05-10T22:55:08.200Z,100802.28
2023-05-10T22:57:37.997Z,100799.75
2023-05-10T23:00:08.211Z,100823.66
2023-05-10T23:02:36.592Z,100820.16
2023-05-10T23:05:05.772Z,100814.06
2023-05-10T23:07:35.287Z,100829.19
2023-05-10T23:10:03.473Z,100823.91
2023-05-10T23:12:32.051Z,100824.56
2023-05-10T23:15:01.674Z,100834.38
2023-05-10T23:17:29.854Z,100834.25
2023-05-10T23:19:58.192Z,100827.03
2023-05-10T23:22:26.394Z,100827.13
2023-05-10T23:24:54.581Z,100836.06
2023-05-10T23:27:22.738Z,100838.19
2023-05-10T23:29:52.412Z,100839.47
2023-05-10T23:32:21.983Z,100834.03
2023-05-10T23:34:50.171Z,100830.09
2023-05-10T23:37:18.369Z,100835.97
2023-05-10T23:39:46.620Z,100838.09
2023-05-10T23:42:14.815Z,100825.41
2023-05-10T23:44:42.984Z,100830.72
2023-05-10T23:47:11.387Z,100835.84
2023-05-10T23:49:42.054Z,100838.72
2023-05-10T23:52:10.443Z,100830.94
2023-05-10T23:54:38.633Z,100833.56
2023-05-10T23:57:06.780Z,100831.31
2023-05-10T23:59:34.985Z,100823.66
